createdAt,value
2018-06-03T00:01:07.595Z,17.20
2018-06-03T00:03:35.922Z,18.83
2018-06-03T00:06:04.188Z,20.23
2018-06-03T00:08:33.192Z,21.27
2018-06-03T00:11:01.380Z,20.73
2018-06-03T00:13:29.533Z,18.07
2018-06-03T00:15:57.801Z,19.63
2018-06-03T00:18:26.008Z,22.00
2018-06-03T00:20:59.746Z,19.10
2018-06-03T00:23:27.914Z,21.97
2018-06-03T00:25:56.140Z,19.90
2018-06-03T00:28:24.298Z,19.60
2018-06-03T00:30:52.680Z,16.77
2018-06-03T00:33:21.571Z,17.40
2018-06-03T00:36:56.886Z,19.33
2018-06-03T00:39:25.090Z,15.43
2018-06-03T00:41:53.277Z,18.70
2018-06-03T00:44:21.412Z,16.93
2018-06-03T00:46:49.565Z,17.37
2018-06-03T00:49:17.762Z,19.70
2018-06-03T00:51:46.927Z,18.93
2018-06-03T00:54:15.145Z,16.57
2018-06-03T00:57:20.420Z,16.70
2018-06-03T00:59:48.568Z,18.23
2018-06-03T01:02:16.771Z,20.27
2018-06-03T01:04:45.011Z,17.27
2018-06-03T01:07:13.174Z,18.23
2018-06-03T01:09:41.321Z,14.57
2018-06-03T01:12:09.564Z,19.30
2018-06-03T01:14:37.720Z,18.47
2018-06-03T01:17:06.019Z,20.50
2018-06-03T01:19:34.206Z,15.37
2018-06-03T01:22:02.398Z,19.23
2018-06-03T01:24:30.576Z,20.07
2018-06-03T01:26:58.762Z,19.60
2018-06-03T01:29:26.950Z,20.10
2018-06-03T01:31:55.147Z,16.27
2018-06-03T01:34:23.358Z,19.17
2018-06-03T01:36:51.569Z,22.27
2018-06-03T01:39:19.750Z,22.33
2018-06-03T01:41:47.935Z,21.50
2018-06-03T01:44:16.160Z,25.33
2018-06-03T01:46:44.348Z,21.43
2018-06-03T01:49:12.537Z,25.40
2018-06-03T01:51:40.732Z,20.10
2018-06-03T01:54:09.038Z,25.07
2018-06-03T01:56:37.285Z,19.57
2018-06-03T01:59:05.562Z,22.63
2018-06-03T02:01:33.731Z,18.97
2018-06-03T02:04:01.949Z,24.00
2018-06-03T02:06:30.199Z,21.30
2018-06-03T02:08:58.337Z,21.43
2018-06-03T02:11:26.559Z,19.03
2018-06-03T02:13:55.210Z,23.97
2018-06-03T02:16:23.409Z,24.07
2018-06-03T02:18:51.650Z,23.83
2018-06-03T02:21:20.757Z,24.37
2018-06-03T02:23:49.026Z,21.27
2018-06-03T02:26:17.505Z,19.87
2018-06-03T02:28:46.524Z,19.43
2018-06-03T02:31:14.672Z,21.47
2018-06-03T02:33:42.924Z,23.50
2018-06-03T02:36:12.110Z,21.47
2018-06-03T02:38:40.252Z,21.80
2018-06-03T02:41:08.414Z,23.53
2018-06-03T02:43:36.614Z,24.70
2018-06-03T02:46:04.818Z,26.70
2018-06-03T02:48:32.993Z,27.90
2018-06-03T02:51:01.192Z,20.10
2018-06-03T02:53:29.362Z,18.37
2018-06-03T02:55:57.583Z,20.90
2018-06-03T02:58:25.736Z,18.47
2018-06-03T03:00:53.867Z,17.03
2018-06-03T03:03:22.048Z,17.23
2018-06-03T03:05:50.222Z,25.07
2018-06-03T03:08:18.386Z,20.63
2018-06-03T03:10:46.667Z,21.13
2018-06-03T03:13:14.816Z,18.63
2018-06-03T03:15:42.987Z,17.47
2018-06-03T03:18:11.149Z,20.23
2018-06-03T03:20:39.318Z,19.80
2018-06-03T03:23:07.546Z,20.17
2018-06-03T03:25:35.785Z,15.47
2018-06-03T03:28:04.076Z,17.33
2018-06-03T03:30:32.206Z,19.27
2018-06-03T03:33:00.408Z,16.37
2018-06-03T03:35:28.932Z,18.17
2018-06-03T03:37:57.134Z,25.37
2018-06-03T03:40:25.258Z,19.63
2018-06-03T03:42:53.459Z,28.53
2018-06-03T03:45:21.634Z,27.20
2018-06-03T03:47:49.882Z,26.27
2018-06-03T03:50:18.258Z,29.43
2018-06-03T03:52:46.430Z,31.77
2018-06-03T03:55:14.618Z,25.50
2018-06-03T03:57:43.664Z,34.07
2018-06-03T04:00:11.873Z,29.07
2018-06-03T04:02:40.107Z,23.07
2018-06-03T04:05:08.260Z,24.53
2018-06-03T04:07:36.435Z,29.67
2018-06-03T04:10:04.655Z,21.47
2018-06-03T04:12:32.822Z,21.63
2018-06-03T04:15:00.990Z,20.90
2018-06-03T04:17:29.162Z,22.87
2018-06-03T04:19:57.445Z,29.20
2018-06-03T04:22:25.600Z,27.53
2018-06-03T04:24:53.738Z,22.23
2018-06-03T04:27:22.574Z,24.90
2018-06-03T04:29:50.762Z,27.70
2018-06-03T04:32:19.102Z,30.27
2018-06-03T04:34:47.278Z,30.50
2018-06-03T04:37:15.434Z,29.77
2018-06-03T04:39:43.999Z,28.73
2018-06-03T04:42:12.168Z,25.73
2018-06-03T04:44:40.322Z,28.70
2018-06-03T04:47:08.471Z,26.13
2018-06-03T04:49:36.654Z,20.57
2018-06-03T04:52:04.859Z,33.80
2018-06-03T04:54:33.075Z,29.90
2018-06-03T04:57:01.265Z,29.07
2018-06-03T04:59:29.469Z,29.93
2018-06-03T05:01:57.619Z,31.40
2018-06-03T05:04:25.833Z,33.93
2018-06-03T05:06:54.015Z,33.13
2018-06-03T05:09:22.153Z,36.20
2018-06-03T05:11:50.345Z,34.93
2018-06-03T05:14:18.607Z,32.23
2018-06-03T05:16:47.041Z,33.63
2018-06-03T05:19:15.219Z,31.90
2018-06-03T05:21:43.403Z,35.97
2018-06-03T05:24:11.665Z,31.87
2018-06-03T05:26:39.875Z,33.07
2018-06-03T05:29:08.049Z,34.93
2018-06-03T05:31:36.221Z,29.67
2018-06-03T05:34:04.792Z,32.17
2018-06-03T05:36:33.009Z,32.83
2018-06-03T05:39:01.223Z,35.40
2018-06-03T05:41:29.361Z,28.10
2018-06-03T05:43:57.883Z,31.47
2018-06-03T05:46:26.084Z,30.27
2018-06-03T05:48:54.255Z,31.33
2018-06-03T05:51:22.362Z,30.30
2018-06-03T05:53:50.487Z,31.07
2018-06-03T05:56:18.644Z,25.83
2018-06-03T06:01:27.602Z,31.60
2018-06-03T06:03:56.787Z,33.17
2018-06-03T06:06:24.915Z,32.53
2018-06-03T06:08:53.216Z,32.37
2018-06-03T06:11:21.400Z,32.40
2018-06-03T06:13:49.614Z,31.50
2018-06-03T06:16:24.084Z,31.93
2018-06-03T06:18:52.230Z,32.33
2018-06-03T06:21:20.438Z,33.83
2018-06-03T06:23:48.664Z,33.53
2018-06-03T06:26:18.904Z,34.73
2018-06-03T06:28:47.163Z,36.33
2018-06-03T06:31:15.336Z,36.13
2018-06-03T06:33:43.601Z,36.33
2018-06-03T06:36:11.765Z,34.87
2018-06-03T06:38:39.940Z,37.30
2018-06-03T06:41:08.124Z,38.73
2018-06-03T06:43:36.299Z,37.00
2018-06-03T06:46:04.542Z,37.90
2018-06-03T06:48:32.770Z,36.07
2018-06-03T06:51:00.950Z,39.43
2018-06-03T06:53:29.209Z,38.97
2018-06-03T06:55:57.498Z,40.40
2018-06-03T06:58:25.699Z,40.93
2018-06-03T07:00:53.902Z,35.77
2018-06-03T07:03:22.239Z,40.63
2018-06-03T07:05:50.700Z,38.67
2018-06-03T07:08:18.855Z,42.03
2018-06-03T07:10:47.039Z,28.63
2018-06-03T07:13:15.683Z,38.97
2018-06-03T07:15:44.081Z,35.53
2018-06-03T07:18:12.336Z,37.23
2018-06-03T07:20:40.499Z,34.87
2018-06-03T07:23:08.681Z,31.17
2018-06-03T07:25:36.825Z,36.10
2018-06-03T07:28:05.012Z,32.97
2018-06-03T07:30:33.170Z,34.00
2018-06-03T07:33:01.655Z,32.00
2018-06-03T07:35:29.851Z,30.77
2018-06-03T07:37:58.021Z,30.00
2018-06-03T07:40:26.718Z,32.07
2018-06-03T07:42:55.141Z,30.77
2018-06-03T07:45:23.593Z,29.00
2018-06-03T07:47:52.818Z,29.07
2018-06-03T07:50:21.188Z,26.87
2018-06-03T07:52:49.345Z,27.43
2018-06-03T07:55:18.184Z,29.10
2018-06-03T07:57:46.404Z,27.93
2018-06-03T08:00:14.567Z,20.60
2018-06-03T08:02:42.897Z,17.97
2018-06-03T08:05:11.101Z,20.33
2018-06-03T08:07:39.369Z,17.83
2018-06-03T08:10:07.538Z,18.53
2018-06-03T08:12:35.955Z,19.03
2018-06-03T08:15:04.125Z,16.43
2018-06-03T08:17:32.295Z,16.80
2018-06-03T08:20:00.617Z,16.23
2018-06-03T08:22:28.870Z,17.17
2018-06-03T08:24:57.166Z,18.63
2018-06-03T08:27:25.480Z,18.33
2018-06-03T08:29:54.770Z,18.07
2018-06-03T08:32:23.036Z,20.33
2018-06-03T08:34:51.248Z,21.40
2018-06-03T08:37:20.236Z,21.00
2018-06-03T08:39:49.464Z,22.00
2018-06-03T08:42:17.707Z,21.23
2018-06-03T08:44:46.201Z,23.23
2018-06-03T08:47:14.681Z,23.23
2018-06-03T08:49:42.975Z,22.87
2018-06-03T08:52:11.223Z,17.87
2018-06-03T08:54:39.571Z,20.83
2018-06-03T08:57:07.902Z,20.57
2018-06-03T08:59:36.051Z,21.50
2018-06-03T09:02:04.339Z,19.83
2018-06-03T09:04:32.551Z,18.20
2018-06-03T09:07:00.757Z,16.50
2018-06-03T09:09:28.891Z,18.80
2018-06-03T09:11:57.089Z,18.10
2018-06-03T09:14:25.676Z,17.33
2018-06-03T09:16:53.911Z,17.30
2018-06-03T09:19:22.063Z,18.00
2018-06-03T09:21:50.289Z,18.37
2018-06-03T09:24:18.709Z,16.93
2018-06-03T09:26:48.077Z,18.00
2018-06-03T09:29:16.465Z,15.47
2018-06-03T09:31:45.017Z,16.73
2018-06-03T09:34:13.184Z,15.87
2018-06-03T09:36:41.649Z,17.63
2018-06-03T09:39:09.804Z,16.70
2018-06-03T09:41:38.027Z,17.23
2018-06-03T09:44:06.624Z,16.63
2018-06-03T09:46:36.597Z,15.73
2018-06-03T09:49:05.023Z,18.03
2018-06-03T09:51:33.295Z,16.63
2018-06-03T09:54:01.850Z,16.07
2018-06-03T09:56:30.359Z,17.37
2018-06-03T09:58:58.580Z,18.40
2018-06-03T10:01:26.772Z,20.00
2018-06-03T10:03:54.934Z,19.80
2018-06-03T10:06:23.582Z,20.00
2018-06-03T10:08:51.731Z,17.60
2018-06-03T10:11:19.908Z,18.80
2018-06-03T10:13:48.106Z,18.93
2018-06-03T10:16:16.257Z,18.73
2018-06-03T10:18:44.375Z,18.57
2018-06-03T10:21:12.623Z,18.67
2018-06-03T10:23:40.900Z,16.80
2018-06-03T10:26:10.509Z,16.50
2018-06-03T10:28:38.807Z,15.57
2018-06-03T10:31:07.159Z,19.40
2018-06-03T10:33:35.666Z,19.00
2018-06-03T10:36:03.887Z,19.60
2018-06-03T10:38:32.083Z,20.17
2018-06-03T10:41:00.618Z,18.27
2018-06-03T10:43:28.977Z,17.90
2018-06-03T10:45:57.223Z,17.30
2018-06-03T10:48:25.460Z,18.07
2018-06-03T10:50:53.887Z,15.47
2018-06-03T10:53:22.067Z,16.40
2018-06-03T10:55:50.221Z,15.87
2018-06-03T10:58:19.316Z,15.83
2018-06-03T11:00:47.477Z,16.40
2018-06-03T11:03:15.727Z,16.07
2018-06-03T11:05:43.955Z,16.70
2018-06-03T11:08:12.156Z,17.03
2018-06-03T11:10:40.791Z,13.87
2018-06-03T11:13:08.959Z,13.50
2018-06-03T11:15:37.157Z,13.10
2018-06-03T11:18:05.463Z,12.13
2018-06-03T11:20:33.635Z,9.57
2018-06-03T11:23:01.820Z,9.00
2018-06-03T11:25:29.951Z,11.50
2018-06-03T11:27:58.153Z,10.90
2018-06-03T11:30:26.398Z,11.20
2018-06-03T11:32:54.556Z,11.60
2018-06-03T11:35:22.781Z,10.60
2018-06-03T11:37:50.954Z,11.13
2018-06-03T11:40:19.404Z,10.27
2018-06-03T11:42:47.696Z,11.57
2018-06-03T11:45:15.952Z,10.63
2018-06-03T11:47:44.124Z,11.60
2018-06-03T11:50:12.352Z,11.70
2018-06-03T11:52:40.552Z,11.15
2018-06-03T11:55:08.778Z,12.05
2018-06-03T11:57:42.436Z,10.93
2018-06-03T12:00:10.688Z,11.33
2018-06-03T12:02:38.897Z,10.78
2018-06-03T12:05:07.104Z,10.68
2018-06-03T12:07:35.316Z,12.35
2018-06-03T12:10:03.514Z,11.30
2018-06-03T12:12:31.778Z,12.47
2018-06-03T12:15:00.016Z,11.97
2018-06-03T12:17:28.196Z,10.00
2018-06-03T12:19:56.393Z,9.65
2018-06-03T12:22:24.572Z,8.73
2018-06-03T12:24:52.736Z,10.05
2018-06-03T12:27:20.882Z,9.38
2018-06-03T12:29:49.081Z,10.25
2018-06-03T12:32:17.362Z,9.40
2018-06-03T12:34:52.074Z,7.22
2018-06-03T12:37:20.942Z,7.80
2018-06-03T12:39:49.141Z,8.25
2018-06-03T12:42:23.734Z,7.25
2018-06-03T12:44:51.936Z,7.12
2018-06-03T12:47:20.112Z,6.22
2018-06-03T12:52:30.536Z,7.50
2018-06-03T12:55:07.111Z,7.30
2018-06-03T12:57:35.361Z,8.15
2018-06-03T13:00:03.557Z,7.47
2018-06-03T13:02:31.825Z,7.72
2018-06-03T13:05:01.276Z,7.37
2018-06-03T13:07:35.820Z,6.60
2018-06-03T13:10:20.088Z,8.33
2018-06-03T13:15:39.539Z,8.33
2018-06-03T13:23:30.903Z,7.80
2018-06-03T13:28:56.127Z,8.78
2018-06-03T13:31:24.415Z,10.00
2018-06-03T13:33:52.793Z,10.58
2018-06-03T13:36:25.785Z,10.28
2018-06-03T13:38:53.953Z,10.35
2018-06-03T13:41:27.570Z,9.60
2018-06-03T13:43:56.197Z,10.32
2018-06-03T13:46:24.507Z,10.23
2018-06-03T13:48:53.039Z,9.20
2018-06-03T13:51:21.795Z,9.58
2018-06-03T13:56:25.523Z,7.70
2018-06-03T13:58:53.701Z,9.25
2018-06-03T14:01:21.886Z,9.33
2018-06-03T14:03:55.214Z,9.70
2018-06-03T14:06:29.087Z,9.15
2018-06-03T14:08:57.271Z,8.88
2018-06-03T14:11:30.355Z,9.03
2018-06-03T14:14:03.324Z,8.58
2018-06-03T14:16:36.072Z,8.83
2018-06-03T14:19:05.114Z,8.70
2018-06-03T14:21:33.314Z,7.42
2018-06-03T14:24:01.510Z,7.85
2018-06-03T14:26:29.892Z,7.53
2018-06-03T14:28:58.235Z,7.30
2018-06-03T14:34:12.917Z,6.67
2018-06-03T14:40:29.928Z,7.25
2018-06-03T14:42:58.116Z,9.68
2018-06-03T14:45:26.806Z,7.95
2018-06-03T14:48:06.784Z,6.50
2018-06-03T14:50:35.509Z,7.50
2018-06-03T14:53:03.716Z,11.63
2018-06-03T14:55:32.061Z,7.20
2018-06-03T14:58:02.304Z,7.03
2018-06-03T15:00:30.473Z,6.55
2018-06-03T15:02:58.740Z,6.17
2018-06-03T15:05:27.022Z,6.37
2018-06-03T15:07:55.237Z,7.35
2018-06-03T15:10:23.429Z,7.67
2018-06-03T15:12:51.575Z,6.62
2018-06-03T15:15:20.558Z,8.13
2018-06-03T15:17:48.815Z,8.25
2018-06-03T15:20:17.721Z,7.78
2018-06-03T15:22:45.968Z,7.15
2018-06-03T15:25:14.127Z,7.55
2018-06-03T15:27:42.711Z,7.28
2018-06-03T15:30:10.958Z,7.22
2018-06-03T15:32:39.195Z,7.42
2018-06-03T15:35:07.412Z,7.25
2018-06-03T15:37:36.247Z,8.95
2018-06-03T15:40:04.974Z,7.10
2018-06-03T15:42:33.249Z,6.35
2018-06-03T15:45:01.425Z,7.17
2018-06-03T15:47:29.642Z,7.15
2018-06-03T15:49:57.914Z,6.78
2018-06-03T15:52:26.132Z,7.45
2018-06-03T15:54:54.353Z,7.90
2018-06-03T15:57:22.526Z,6.25
2018-06-03T15:59:50.731Z,7.20
2018-06-03T16:02:18.943Z,7.15
2018-06-03T16:04:47.231Z,7.40
2018-06-03T16:07:15.399Z,7.42
2018-06-03T16:09:43.734Z,7.12
2018-06-03T16:12:11.988Z,7.17
2018-06-03T16:14:40.174Z,6.85
2018-06-03T16:17:08.374Z,6.92
2018-06-03T16:19:36.796Z,7.08
2018-06-03T16:22:05.062Z,6.67
2018-06-03T16:24:33.338Z,7.12
2018-06-03T16:27:01.653Z,7.15
2018-06-03T16:29:29.989Z,7.60
2018-06-03T16:31:58.173Z,7.78
2018-06-03T16:34:26.329Z,6.55
2018-06-03T16:36:54.495Z,7.20
2018-06-03T16:39:22.643Z,6.95
2018-06-03T16:41:50.857Z,7.42
2018-06-03T16:44:19.415Z,7.60
2018-06-03T16:46:47.809Z,7.12
2018-06-03T16:49:16.326Z,7.00
2018-06-03T16:51:44.676Z,8.28
2018-06-03T16:54:13.057Z,8.35
2018-06-03T16:56:41.312Z,8.55
2018-06-03T16:59:09.651Z,7.62
2018-06-03T17:01:37.848Z,7.72
2018-06-03T17:04:06.093Z,7.60
2018-06-03T17:06:34.261Z,7.00
2018-06-03T17:09:02.717Z,7.20
2018-06-03T17:11:30.883Z,7.63
2018-06-03T17:13:59.065Z,6.73
2018-06-03T17:16:27.313Z,6.90
2018-06-03T17:18:55.481Z,7.07
2018-06-03T17:21:24.062Z,6.50
2018-06-03T17:23:52.230Z,7.23
2018-06-03T17:26:20.509Z,7.50
2018-06-03T17:28:48.718Z,7.13
2018-06-03T17:31:16.855Z,6.60
2018-06-03T17:33:45.038Z,7.93
2018-06-03T17:36:13.343Z,6.53
2018-06-03T17:38:41.770Z,6.83
2018-06-03T17:41:09.989Z,6.13
2018-06-03T17:43:38.155Z,6.77
2018-06-03T17:46:06.425Z,8.05
2018-06-03T17:48:34.818Z,6.17
2018-06-03T17:51:03.005Z,7.05
2018-06-03T17:53:31.235Z,7.37
2018-06-03T17:55:59.481Z,6.35
2018-06-03T17:58:27.677Z,6.75
2018-06-03T18:00:55.793Z,7.28
2018-06-03T18:03:24.102Z,7.40
2018-06-03T18:05:52.339Z,7.03
2018-06-03T18:08:20.561Z,7.80
2018-06-03T18:10:48.728Z,7.17
2018-06-03T18:13:16.904Z,8.03
2018-06-03T18:15:45.072Z,8.08
2018-06-03T18:18:13.304Z,7.05
2018-06-03T18:20:41.503Z,7.78
2018-06-03T18:23:09.648Z,7.40
2018-06-03T18:25:37.835Z,7.42
2018-06-03T18:28:06.101Z,8.60
2018-06-03T18:30:34.219Z,7.47
2018-06-03T18:33:02.371Z,7.92
2018-06-03T18:35:30.540Z,8.98
2018-06-03T18:37:58.897Z,7.10
2018-06-03T18:40:27.095Z,6.97
2018-06-03T18:42:55.312Z,7.95
2018-06-03T18:45:23.661Z,8.38
2018-06-03T18:47:51.819Z,8.08
2018-06-03T18:50:20.011Z,9.08
2018-06-03T18:52:48.291Z,7.33
2018-06-03T18:55:16.502Z,7.53
2018-06-03T18:57:44.709Z,7.70
2018-06-03T19:00:12.875Z,8.20
2018-06-03T19:02:41.286Z,9.63
2018-06-03T19:05:09.475Z,8.03
2018-06-03T19:07:37.646Z,8.60
2018-06-03T19:10:05.862Z,8.37
2018-06-03T19:12:34.333Z,8.37
2018-06-03T19:15:02.961Z,8.37
2018-06-03T19:17:31.723Z,8.60
2018-06-03T19:20:00.179Z,9.60
2018-06-03T19:22:29.287Z,9.33
2018-06-03T19:24:57.561Z,9.63
2018-06-03T19:27:25.749Z,12.57
2018-06-03T19:29:54.065Z,9.63
2018-06-03T19:32:22.613Z,10.57
2018-06-03T19:34:50.884Z,11.33
2018-06-03T19:37:19.121Z,11.13
2018-06-03T19:39:47.298Z,9.43
2018-06-03T19:42:15.616Z,12.17
2018-06-03T19:44:43.773Z,12.27
2018-06-03T19:47:11.941Z,11.87
2018-06-03T19:49:40.191Z,11.10
2018-06-03T19:52:08.607Z,13.20
2018-06-03T19:54:37.059Z,11.93
2018-06-03T19:57:05.858Z,12.73
2018-06-03T19:59:34.197Z,12.43
2018-06-03T20:02:02.448Z,12.30
2018-06-03T20:04:30.716Z,10.60
2018-06-03T20:06:58.854Z,10.33
2018-06-03T20:09:27.104Z,11.53
2018-06-03T20:11:55.320Z,10.67
2018-06-03T20:14:23.499Z,12.07
2018-06-03T20:16:51.792Z,11.77
2018-06-03T20:19:20.711Z,10.57
2018-06-03T20:21:48.967Z,9.27
2018-06-03T20:24:17.215Z,10.23
2018-06-03T20:26:45.415Z,10.40
2018-06-03T20:29:13.609Z,12.67
2018-06-03T20:31:41.900Z,11.33
2018-06-03T20:34:10.163Z,10.27
2018-06-03T20:36:38.412Z,11.67
2018-06-03T20:39:06.871Z,17.23
2018-06-03T20:41:34.993Z,12.03
2018-06-03T20:44:03.258Z,10.90
2018-06-03T20:46:31.727Z,9.93
2018-06-03T20:49:00.267Z,9.77
2018-06-03T20:51:28.439Z,12.40
2018-06-03T20:53:56.709Z,11.23
2018-06-03T20:56:24.924Z,12.60
2018-06-03T20:58:53.174Z,11.80
2018-06-03T21:01:21.438Z,9.80
2018-06-03T21:03:49.817Z,9.47
2018-06-03T21:06:18.346Z,9.30
2018-06-03T21:08:48.751Z,10.77
2018-06-03T21:11:17.036Z,8.87
2018-06-03T21:13:45.214Z,11.03
2018-06-03T21:16:14.136Z,9.97
2018-06-03T21:18:42.332Z,9.37
2018-06-03T21:21:10.842Z,8.60
2018-06-03T21:23:38.996Z,9.60
2018-06-03T21:26:07.146Z,8.33
2018-06-03T21:28:35.300Z,9.37
2018-06-03T21:31:03.538Z,8.70
2018-06-03T21:33:31.887Z,7.90
2018-06-03T21:36:00.047Z,8.43
2018-06-03T21:38:28.242Z,8.40
2018-06-03T21:40:56.444Z,8.50
2018-06-03T21:43:24.996Z,9.27
2018-06-03T21:45:53.874Z,8.67
2018-06-03T21:48:22.137Z,9.70
2018-06-03T21:50:50.342Z,11.13
2018-06-03T21:53:19.158Z,12.35
2018-06-03T21:55:48.167Z,9.97
2018-06-03T21:58:16.346Z,11.20
2018-06-03T22:00:44.520Z,11.00
2018-06-03T22:03:12.717Z,11.63
2018-06-03T22:05:41.540Z,11.20
2018-06-03T22:08:09.702Z,11.93
2018-06-03T22:10:37.872Z,13.53
2018-06-03T22:13:10.202Z,12.20
2018-06-03T22:15:38.570Z,12.80
2018-06-03T22:18:06.817Z,14.73
2018-06-03T22:20:34.967Z,16.70
2018-06-03T22:23:03.271Z,13.43
2018-06-03T22:25:31.421Z,16.47
2018-06-03T22:27:59.576Z,16.03
2018-06-03T22:30:27.749Z,12.93
2018-06-03T22:32:55.928Z,15.33
2018-06-03T22:35:24.220Z,18.27
2018-06-03T22:37:52.451Z,21.27
2018-06-03T22:40:20.921Z,17.23
2018-06-03T22:42:49.181Z,16.10
2018-06-03T22:45:18.461Z,22.10
2018-06-03T22:47:46.600Z,21.50
2018-06-03T22:50:14.731Z,19.30
2018-06-03T22:52:42.961Z,19.67
2018-06-03T22:55:11.203Z,19.47
2018-06-03T22:57:44.904Z,18.90
2018-06-03T23:00:15.615Z,21.90
2018-06-03T23:02:48.119Z,22.83
2018-06-03T23:05:16.351Z,26.27
2018-06-03T23:07:44.549Z,21.53
2018-06-03T23:10:12.728Z,20.63
2018-06-03T23:12:40.919Z,20.87
2018-06-03T23:15:09.047Z,23.33
2018-06-03T23:17:37.268Z,22.43
2018-06-03T23:20:05.554Z,24.27
2018-06-03T23:22:33.710Z,22.63
2018-06-03T23:25:01.875Z,22.20
2018-06-03T23:27:30.056Z,22.70
2018-06-03T23:29:59.086Z,24.33
2018-06-03T23:32:27.222Z,23.47
2018-06-03T23:34:55.425Z,23.30
2018-06-03T23:37:23.669Z,25.40
2018-06-03T23:39:51.838Z,24.63
2018-06-03T23:42:20.687Z,24.63
2018-06-03T23:44:48.874Z,24.13
2018-06-03T23:47:17.018Z,24.23
2018-06-03T23:49:45.230Z,25.10
2018-06-03T23:52:13.376Z,24.63
2018-06-03T23:54:41.574Z,23.60
2018-06-03T23:57:09.795Z,24.70
2018-06-03T23:59:37.922Z,24.50
